sensor_id;sensor_type;location;lat;lon;timestamp;P1;durP1;ratioP1;P2;durP2;ratioP2
70148;SDS011;57514;52.164;5.282;2022-11-15T00:01:42;39.20;;;16.38;;
70148;SDS011;57514;52.164;5.282;2022-11-15T00:04:28;40.00;;;15.65;;
70148;SDS011;57514;52.164;5.282;2022-11-15T00:07:14;37.28;;;15.18;;
70148;SDS011;57514;52.164;5.282;2022-11-15T00:10:22;38.25;;;15.65;;
70148;SDS011;57514;52.164;5.282;2022-11-15T00:13:09;39.05;;;15.13;;
70148;SDS011;57514;52.164;5.282;2022-11-15T00:15:58;38.70;;;14.32;;
70148;SDS011;57514;52.164;5.282;2022-11-15T00:18:44;37.58;;;14.80;;
70148;SDS011;57514;52.164;5.282;2022-11-15T00:21:34;31.35;;;14.00;;
70148;SDS011;57514;52.164;5.282;2022-11-15T00:24:20;37.78;;;12.10;;
70148;SDS011;57514;52.164;5.282;2022-11-15T00:27:06;38.45;;;11.88;;
70148;SDS011;57514;52.164;5.282;2022-11-15T00:29:52;24.13;;;11.00;;
70148;SDS011;57514;52.164;5.282;2022-11-15T00:32:38;43.53;;;16.45;;
70148;SDS011;57514;52.164;5.282;2022-11-15T00:35:24;40.88;;;14.98;;
70148;SDS011;57514;52.164;5.282;2022-11-15T00:38:10;43.58;;;16.63;;
70148;SDS011;57514;52.164;5.282;2022-11-15T00:40:56;33.47;;;12.82;;
70148;SDS011;57514;52.164;5.282;2022-11-15T00:43:41;51.05;;;17.23;;
70148;SDS011;57514;52.164;5.282;2022-11-15T00:46:28;44.17;;;15.52;;
70148;SDS011;57514;52.164;5.282;2022-11-15T00:49:14;27.35;;;8.57;;
70148;SDS011;57514;52.164;5.282;2022-11-15T00:52:00;53.00;;;16.75;;
70148;SDS011;57514;52.164;5.282;2022-11-15T00:54:45;47.38;;;17.60;;
70148;SDS011;57514;52.164;5.282;2022-11-15T00:57:31;48.20;;;17.30;;
70148;SDS011;57514;52.164;5.282;2022-11-15T01:00:17;43.65;;;16.45;;
70148;SDS011;57514;52.164;5.282;2022-11-15T01:03:03;36.65;;;12.82;;
70148;SDS011;57514;52.164;5.282;2022-11-15T01:05:49;46.75;;;15.68;;
70148;SDS011;57514;52.164;5.282;2022-11-15T01:08:35;50.08;;;17.67;;
70148;SDS011;57514;52.164;5.282;2022-11-15T01:11:20;65.22;;;19.33;;
70148;SDS011;57514;52.164;5.282;2022-11-15T01:14:06;64.78;;;19.85;;
70148;SDS011;57514;52.164;5.282;2022-11-15T01:16:55;49.55;;;17.25;;
70148;SDS011;57514;52.164;5.282;2022-11-15T01:19:41;44.95;;;15.70;;
70148;SDS011;57514;52.164;5.282;2022-11-15T01:22:27;45.97;;;18.60;;
70148;SDS011;57514;52.164;5.282;2022-11-15T01:25:13;48.67;;;18.08;;
70148;SDS011;57514;52.164;5.282;2022-11-15T01:27:58;28.58;;;13.10;;
70148;SDS011;57514;52.164;5.282;2022-11-15T01:30:44;47.03;;;18.90;;
70148;SDS011;57514;52.164;5.282;2022-11-15T01:33:30;53.15;;;18.15;;
70148;SDS011;57514;52.164;5.282;2022-11-15T01:36:18;61.83;;;20.80;;
70148;SDS011;57514;52.164;5.282;2022-11-15T01:39:03;43.95;;;17.48;;
70148;SDS011;57514;52.164;5.282;2022-11-15T01:41:49;47.60;;;17.85;;
70148;SDS011;57514;52.164;5.282;2022-11-15T01:44:40;44.47;;;16.15;;
70148;SDS011;57514;52.164;5.282;2022-11-15T01:47:28;50.13;;;18.10;;
70148;SDS011;57514;52.164;5.282;2022-11-15T01:50:16;52.72;;;19.65;;
70148;SDS011;57514;52.164;5.282;2022-11-15T01:53:03;42.70;;;15.27;;
70148;SDS011;57514;52.164;5.282;2022-11-15T01:55:49;48.25;;;18.48;;
70148;SDS011;57514;52.164;5.282;2022-11-15T01:58:34;52.97;;;19.45;;
70148;SDS011;57514;52.164;5.282;2022-11-15T02:01:21;52.63;;;17.58;;
70148;SDS011;57514;52.164;5.282;2022-11-15T02:04:15;49.38;;;19.90;;
70148;SDS011;57514;52.164;5.282;2022-11-15T02:07:02;43.88;;;16.70;;
70148;SDS011;57514;52.164;5.282;2022-11-15T02:09:49;53.92;;;19.48;;
70148;SDS011;57514;52.164;5.282;2022-11-15T02:12:35;40.17;;;14.43;;
70148;SDS011;57514;52.164;5.282;2022-11-15T02:15:21;54.83;;;18.25;;
70148;SDS011;57514;52.164;5.282;2022-11-15T02:18:10;59.00;;;19.77;;
70148;SDS011;57514;52.164;5.282;2022-11-15T02:29:23;39.90;;;13.27;;
70148;SDS011;57514;52.164;5.282;2022-11-15T02:33:00;59.65;;;20.65;;
70148;SDS011;57514;52.164;5.282;2022-11-15T02:41:30;51.42;;;19.92;;
70148;SDS011;57514;52.164;5.282;2022-11-15T02:44:20;48.47;;;18.20;;
70148;SDS011;57514;52.164;5.282;2022-11-15T02:47:07;47.15;;;18.80;;
70148;SDS011;57514;52.164;5.282;2022-11-15T02:50:05;51.83;;;20.20;;
70148;SDS011;57514;52.164;5.282;2022-11-15T02:52:52;32.55;;;13.43;;
70148;SDS011;57514;52.164;5.282;2022-11-15T02:55:41;54.70;;;20.15;;
70148;SDS011;57514;52.164;5.282;2022-11-15T03:07:11;53.00;;;17.50;;
70148;SDS011;57514;52.164;5.282;2022-11-15T03:10:06;50.67;;;19.63;;
70148;SDS011;57514;52.164;5.282;2022-11-15T03:12:59;57.80;;;19.02;;
70148;SDS011;57514;52.164;5.282;2022-11-15T03:16:23;57.03;;;19.65;;
70148;SDS011;57514;52.164;5.282;2022-11-15T03:19:09;60.35;;;20.40;;
70148;SDS011;57514;52.164;5.282;2022-11-15T03:21:57;53.90;;;18.60;;
70148;SDS011;57514;52.164;5.282;2022-11-15T03:24:45;43.35;;;16.48;;
70148;SDS011;57514;52.164;5.282;2022-11-15T03:27:38;42.20;;;16.80;;
70148;SDS011;57514;52.164;5.282;2022-11-15T03:30:25;47.72;;;17.80;;
70148;SDS011;57514;52.164;5.282;2022-11-15T03:33:11;50.50;;;19.83;;
70148;SDS011;57514;52.164;5.282;2022-11-15T03:35:57;56.40;;;19.67;;
70148;SDS011;57514;52.164;5.282;2022-11-15T03:38:43;50.38;;;19.38;;
70148;SDS011;57514;52.164;5.282;2022-11-15T03:41:43;51.63;;;19.70;;
70148;SDS011;57514;52.164;5.282;2022-11-15T03:50:10;50.17;;;19.48;;
70148;SDS011;57514;52.164;5.282;2022-11-15T03:52:57;48.45;;;17.77;;
70148;SDS011;57514;52.164;5.282;2022-11-15T03:55:43;38.55;;;15.82;;
70148;SDS011;57514;52.164;5.282;2022-11-15T03:58:31;41.53;;;17.13;;
70148;SDS011;57514;52.164;5.282;2022-11-15T04:01:17;40.70;;;18.40;;
70148;SDS011;57514;52.164;5.282;2022-11-15T04:04:03;49.38;;;20.42;;
70148;SDS011;57514;52.164;5.282;2022-11-15T04:06:48;30.63;;;14.02;;
70148;SDS011;57514;52.164;5.282;2022-11-15T04:09:34;43.13;;;16.77;;
70148;SDS011;57514;52.164;5.282;2022-11-15T04:12:41;37.63;;;16.20;;
70148;SDS011;57514;52.164;5.282;2022-11-15T04:15:28;39.70;;;15.73;;
70148;SDS011;57514;52.164;5.282;2022-11-15T04:18:15;35.78;;;15.43;;
70148;SDS011;57514;52.164;5.282;2022-11-15T04:21:01;32.20;;;13.82;;
70148;SDS011;57514;52.164;5.282;2022-11-15T04:24:05;41.83;;;17.67;;
70148;SDS011;57514;52.164;5.282;2022-11-15T04:26:57;41.72;;;17.63;;
70148;SDS011;57514;52.164;5.282;2022-11-15T04:29:42;41.67;;;17.70;;
70148;SDS011;57514;52.164;5.282;2022-11-15T04:32:28;39.92;;;16.33;;
70148;SDS011;57514;52.164;5.282;2022-11-15T04:35:14;44.92;;;18.98;;
70148;SDS011;57514;52.164;5.282;2022-11-15T04:38:01;49.15;;;18.02;;
70148;SDS011;57514;52.164;5.282;2022-11-15T04:40:46;50.83;;;18.70;;
70148;SDS011;57514;52.164;5.282;2022-11-15T04:43:32;41.92;;;17.42;;
70148;SDS011;57514;52.164;5.282;2022-11-15T04:46:18;45.03;;;18.83;;
70148;SDS011;57514;52.164;5.282;2022-11-15T04:49:04;46.28;;;16.90;;
70148;SDS011;57514;52.164;5.282;2022-11-15T04:51:50;44.80;;;18.38;;
70148;SDS011;57514;52.164;5.282;2022-11-15T04:54:36;41.28;;;16.55;;
70148;SDS011;57514;52.164;5.282;2022-11-15T04:57:22;39.38;;;16.88;;
70148;SDS011;57514;52.164;5.282;2022-11-15T05:00:09;41.95;;;17.42;;
70148;SDS011;57514;52.164;5.282;2022-11-15T05:02:56;36.65;;;16.90;;
70148;SDS011;57514;52.164;5.282;2022-11-15T05:06:01;34.72;;;15.13;;
70148;SDS011;57514;52.164;5.282;2022-11-15T05:08:47;34.47;;;16.10;;
70148;SDS011;57514;52.164;5.282;2022-11-15T05:11:33;39.90;;;17.80;;
70148;SDS011;57514;52.164;5.282;2022-11-15T05:14:18;35.95;;;16.25;;
70148;SDS011;57514;52.164;5.282;2022-11-15T05:17:04;34.97;;;15.13;;
70148;SDS011;57514;52.164;5.282;2022-11-15T05:19:51;30.30;;;12.95;;
70148;SDS011;57514;52.164;5.282;2022-11-15T05:22:37;30.02;;;13.85;;
70148;SDS011;57514;52.164;5.282;2022-11-15T05:25:23;26.63;;;11.13;;
70148;SDS011;57514;52.164;5.282;2022-11-15T05:28:09;34.47;;;16.23;;
70148;SDS011;57514;52.164;5.282;2022-11-15T05:31:01;34.13;;;16.02;;
70148;SDS011;57514;52.164;5.282;2022-11-15T05:33:48;27.17;;;12.43;;
70148;SDS011;57514;52.164;5.282;2022-11-15T05:36:38;35.38;;;15.60;;
70148;SDS011;57514;52.164;5.282;2022-11-15T05:39:24;32.13;;;14.88;;
70148;SDS011;57514;52.164;5.282;2022-11-15T05:42:14;36.40;;;15.82;;
70148;SDS011;57514;52.164;5.282;2022-11-15T05:45:01;29.60;;;13.32;;
70148;SDS011;57514;52.164;5.282;2022-11-15T05:47:48;31.92;;;13.52;;
70148;SDS011;57514;52.164;5.282;2022-11-15T05:50:36;35.08;;;17.00;;
70148;SDS011;57514;52.164;5.282;2022-11-15T05:53:22;33.30;;;12.65;;
70148;SDS011;57514;52.164;5.282;2022-11-15T05:56:08;31.33;;;14.68;;
70148;SDS011;57514;52.164;5.282;2022-11-15T05:58:54;23.67;;;10.73;;
70148;SDS011;57514;52.164;5.282;2022-11-15T06:01:43;28.55;;;13.65;;
70148;SDS011;57514;52.164;5.282;2022-11-15T06:04:29;32.75;;;14.40;;
70148;SDS011;57514;52.164;5.282;2022-11-15T06:07:15;33.22;;;13.82;;
70148;SDS011;57514;52.164;5.282;2022-11-15T06:10:01;32.55;;;14.35;;
70148;SDS011;57514;52.164;5.282;2022-11-15T06:12:47;34.97;;;15.25;;
70148;SDS011;57514;52.164;5.282;2022-11-15T06:15:33;28.67;;;14.25;;
70148;SDS011;57514;52.164;5.282;2022-11-15T06:18:18;32.22;;;15.65;;
70148;SDS011;57514;52.164;5.282;2022-11-15T06:21:04;33.08;;;15.20;;
70148;SDS011;57514;52.164;5.282;2022-11-15T06:23:50;29.35;;;12.93;;
70148;SDS011;57514;52.164;5.282;2022-11-15T06:26:36;30.88;;;14.60;;
70148;SDS011;57514;52.164;5.282;2022-11-15T06:29:22;31.00;;;15.10;;
70148;SDS011;57514;52.164;5.282;2022-11-15T06:32:08;31.90;;;14.38;;
70148;SDS011;57514;52.164;5.282;2022-11-15T06:34:54;33.47;;;15.13;;
70148;SDS011;57514;52.164;5.282;2022-11-15T06:37:41;35.83;;;16.00;;
70148;SDS011;57514;52.164;5.282;2022-11-15T06:40:26;25.67;;;12.50;;
70148;SDS011;57514;52.164;5.282;2022-11-15T06:43:12;33.15;;;15.73;;
70148;SDS011;57514;52.164;5.282;2022-11-15T06:45:59;32.67;;;15.25;;
70148;SDS011;57514;52.164;5.282;2022-11-15T06:48:45;32.03;;;15.07;;
70148;SDS011;57514;52.164;5.282;2022-11-15T06:51:32;33.58;;;13.25;;
70148;SDS011;57514;52.164;5.282;2022-11-15T06:54:18;26.35;;;12.55;;
70148;SDS011;57514;52.164;5.282;2022-11-15T06:57:05;32.92;;;15.13;;
70148;SDS011;57514;52.164;5.282;2022-11-15T06:59:51;35.88;;;17.33;;
70148;SDS011;57514;52.164;5.282;2022-11-15T07:02:37;29.65;;;12.95;;
70148;SDS011;57514;52.164;5.282;2022-11-15T07:05:22;34.97;;;15.68;;
70148;SDS011;57514;52.164;5.282;2022-11-15T07:08:08;33.10;;;14.02;;
70148;SDS011;57514;52.164;5.282;2022-11-15T07:10:57;28.08;;;14.02;;
70148;SDS011;57514;52.164;5.282;2022-11-15T07:13:44;30.25;;;11.57;;
70148;SDS011;57514;52.164;5.282;2022-11-15T07:16:30;34.72;;;15.88;;
70148;SDS011;57514;52.164;5.282;2022-11-15T07:19:15;31.67;;;14.55;;
70148;SDS011;57514;52.164;5.282;2022-11-15T07:22:01;30.75;;;14.23;;
70148;SDS011;57514;52.164;5.282;2022-11-15T07:24:47;30.50;;;12.68;;
70148;SDS011;57514;52.164;5.282;2022-11-15T07:27:33;24.50;;;11.40;;
70148;SDS011;57514;52.164;5.282;2022-11-15T07:30:19;31.67;;;14.30;;
70148;SDS011;57514;52.164;5.282;2022-11-15T07:33:05;22.95;;;11.10;;
70148;SDS011;57514;52.164;5.282;2022-11-15T07:35:50;31.52;;;15.43;;
70148;SDS011;57514;52.164;5.282;2022-11-15T07:38:36;26.58;;;11.20;;
70148;SDS011;57514;52.164;5.282;2022-11-15T07:41:26;30.88;;;13.30;;
70148;SDS011;57514;52.164;5.282;2022-11-15T07:44:12;27.25;;;13.10;;
70148;SDS011;57514;52.164;5.282;2022-11-15T07:46:58;30.52;;;13.20;;
70148;SDS011;57514;52.164;5.282;2022-11-15T07:49:44;29.95;;;13.10;;
70148;SDS011;57514;52.164;5.282;2022-11-15T07:52:38;26.73;;;11.38;;
70148;SDS011;57514;52.164;5.282;2022-11-15T07:55:25;23.05;;;11.20;;
70148;SDS011;57514;52.164;5.282;2022-11-15T07:58:12;28.13;;;12.88;;
70148;SDS011;57514;52.164;5.282;2022-11-15T08:00:58;30.17;;;11.98;;
70148;SDS011;57514;52.164;5.282;2022-11-15T08:03:44;27.17;;;11.80;;
70148;SDS011;57514;52.164;5.282;2022-11-15T08:06:30;25.77;;;10.48;;
70148;SDS011;57514;52.164;5.282;2022-11-15T08:09:16;23.33;;;11.05;;
70148;SDS011;57514;52.164;5.282;2022-11-15T08:12:02;27.60;;;12.95;;
70148;SDS011;57514;52.164;5.282;2022-11-15T08:14:50;22.65;;;10.65;;
70148;SDS011;57514;52.164;5.282;2022-11-15T08:17:36;16.85;;;8.02;;
70148;SDS011;57514;52.164;5.282;2022-11-15T08:20:21;23.23;;;10.13;;
70148;SDS011;57514;52.164;5.282;2022-11-15T08:23:09;26.00;;;10.73;;
70148;SDS011;57514;52.164;5.282;2022-11-15T08:26:04;26.67;;;11.82;;
70148;SDS011;57514;52.164;5.282;2022-11-15T08:31:36;25.92;;;10.25;;
70148;SDS011;57514;52.164;5.282;2022-11-15T08:34:23;24.52;;;11.45;;
70148;SDS011;57514;52.164;5.282;2022-11-15T08:37:09;20.63;;;9.98;;
70148;SDS011;57514;52.164;5.282;2022-11-15T08:39:54;25.17;;;10.85;;
70148;SDS011;57514;52.164;5.282;2022-11-15T08:42:40;26.95;;;10.43;;
70148;SDS011;57514;52.164;5.282;2022-11-15T08:45:26;25.35;;;11.18;;
70148;SDS011;57514;52.164;5.282;2022-11-15T08:48:12;24.55;;;9.98;;
70148;SDS011;57514;52.164;5.282;2022-11-15T08:50:58;23.20;;;9.73;;
70148;SDS011;57514;52.164;5.282;2022-11-15T08:53:44;23.55;;;10.18;;
70148;SDS011;57514;52.164;5.282;2022-11-15T08:56:30;19.80;;;10.05;;
70148;SDS011;57514;52.164;5.282;2022-11-15T08:59:17;20.98;;;10.43;;
70148;SDS011;57514;52.164;5.282;2022-11-15T09:02:03;20.42;;;9.13;;
70148;SDS011;57514;52.164;5.282;2022-11-15T09:04:49;22.40;;;9.40;;
70148;SDS011;57514;52.164;5.282;2022-11-15T09:07:35;19.60;;;9.40;;
70148;SDS011;57514;52.164;5.282;2022-11-15T09:10:21;19.90;;;8.98;;
70148;SDS011;57514;52.164;5.282;2022-11-15T09:13:07;19.73;;;8.75;;
70148;SDS011;57514;52.164;5.282;2022-11-15T09:15:56;17.38;;;7.07;;
70148;SDS011;57514;52.164;5.282;2022-11-15T09:18:42;20.55;;;9.00;;
70148;SDS011;57514;52.164;5.282;2022-11-15T09:21:29;20.45;;;9.23;;
70148;SDS011;57514;52.164;5.282;2022-11-15T09:24:14;19.23;;;8.05;;
70148;SDS011;57514;52.164;5.282;2022-11-15T09:27:00;16.85;;;7.47;;
70148;SDS011;57514;52.164;5.282;2022-11-15T09:29:46;16.58;;;7.93;;
70148;SDS011;57514;52.164;5.282;2022-11-15T09:32:31;15.07;;;7.40;;
70148;SDS011;57514;52.164;5.282;2022-11-15T09:35:23;17.13;;;8.13;;
70148;SDS011;57514;52.164;5.282;2022-11-15T09:38:08;13.40;;;6.10;;
70148;SDS011;57514;52.164;5.282;2022-11-15T09:41:07;15.38;;;6.65;;
70148;SDS011;57514;52.164;5.282;2022-11-15T09:44:05;13.13;;;6.10;;
70148;SDS011;57514;52.164;5.282;2022-11-15T09:49:57;12.75;;;6.15;;
70148;SDS011;57514;52.164;5.282;2022-11-15T09:52:31;15.98;;;6.78;;
70148;SDS011;57514;52.164;5.282;2022-11-15T09:55:00;10.93;;;5.82;;
70148;SDS011;57514;52.164;5.282;2022-11-15T10:00:19;12.73;;;6.43;;
70148;SDS011;57514;52.164;5.282;2022-11-15T10:05:43;15.00;;;5.80;;
70148;SDS011;57514;52.164;5.282;2022-11-15T10:10:58;9.43;;;4.78;;
70148;SDS011;57514;52.164;5.282;2022-11-15T10:13:47;12.85;;;5.43;;
70148;SDS011;57514;52.164;5.282;2022-11-15T10:19:29;10.88;;;5.43;;
70148;SDS011;57514;52.164;5.282;2022-11-15T10:24:45;9.95;;;4.25;;
70148;SDS011;57514;52.164;5.282;2022-11-15T10:27:13;10.70;;;4.90;;
70148;SDS011;57514;52.164;5.282;2022-11-15T10:29:45;9.02;;;4.00;;
70148;SDS011;57514;52.164;5.282;2022-11-15T10:32:14;11.48;;;5.22;;
70148;SDS011;57514;52.164;5.282;2022-11-15T10:34:43;11.82;;;4.57;;
70148;SDS011;57514;52.164;5.282;2022-11-15T10:37:13;10.00;;;4.25;;
70148;SDS011;57514;52.164;5.282;2022-11-15T10:39:40;10.65;;;4.68;;
70148;SDS011;57514;52.164;5.282;2022-11-15T10:42:32;8.65;;;4.25;;
70148;SDS011;57514;52.164;5.282;2022-11-15T10:44:59;8.05;;;3.75;;
70148;SDS011;57514;52.164;5.282;2022-11-15T10:47:27;8.93;;;3.83;;
70148;SDS011;57514;52.164;5.282;2022-11-15T10:50:26;8.20;;;3.58;;
70148;SDS011;57514;52.164;5.282;2022-11-15T10:52:52;9.07;;;4.15;;
70148;SDS011;57514;52.164;5.282;2022-11-15T10:55:22;8.95;;;3.40;;
70148;SDS011;57514;52.164;5.282;2022-11-15T10:57:56;6.43;;;3.45;;
70148;SDS011;57514;52.164;5.282;2022-11-15T11:03:00;5.97;;;2.85;;
70148;SDS011;57514;52.164;5.282;2022-11-15T11:08:09;9.25;;;3.22;;
70148;SDS011;57514;52.164;5.282;2022-11-15T11:10:54;6.78;;;2.92;;
70148;SDS011;57514;52.164;5.282;2022-11-15T11:13:29;8.52;;;3.00;;
70148;SDS011;57514;52.164;5.282;2022-11-15T11:21:20;5.93;;;2.20;;
70148;SDS011;57514;52.164;5.282;2022-11-15T11:29:20;7.75;;;2.45;;
70148;SDS011;57514;52.164;5.282;2022-11-15T11:32:27;8.85;;;2.25;;
70148;SDS011;57514;52.164;5.282;2022-11-15T11:35:10;6.30;;;2.03;;
70148;SDS011;57514;52.164;5.282;2022-11-15T11:43:05;6.15;;;1.95;;
70148;SDS011;57514;52.164;5.282;2022-11-15T11:49:11;7.45;;;2.63;;
70148;SDS011;57514;52.164;5.282;2022-11-15T11:51:39;6.25;;;1.95;;
70148;SDS011;57514;52.164;5.282;2022-11-15T11:57:03;4.40;;;1.83;;
70148;SDS011;57514;52.164;5.282;2022-11-15T11:59:39;4.55;;;1.55;;
70148;SDS011;57514;52.164;5.282;2022-11-15T12:04:49;5.15;;;1.85;;
70148;SDS011;57514;52.164;5.282;2022-11-15T12:07:19;5.72;;;1.75;;
70148;SDS011;57514;52.164;5.282;2022-11-15T12:09:51;4.65;;;1.42;;
70148;SDS011;57514;52.164;5.282;2022-11-15T12:15:23;4.05;;;1.58;;
70148;SDS011;57514;52.164;5.282;2022-11-15T12:17:51;6.50;;;1.55;;
70148;SDS011;57514;52.164;5.282;2022-11-15T12:20:22;6.50;;;1.98;;
70148;SDS011;57514;52.164;5.282;2022-11-15T12:22:57;7.88;;;1.70;;
70148;SDS011;57514;52.164;5.282;2022-11-15T12:31:10;6.28;;;1.63;;
70148;SDS011;57514;52.164;5.282;2022-11-15T12:33:45;8.85;;;1.98;;
70148;SDS011;57514;52.164;5.282;2022-11-15T12:38:50;4.63;;;1.33;;
70148;SDS011;57514;52.164;5.282;2022-11-15T12:41:20;5.82;;;1.55;;
70148;SDS011;57514;52.164;5.282;2022-11-15T12:43:47;5.00;;;1.67;;
70148;SDS011;57514;52.164;5.282;2022-11-15T13:02:25;5.47;;;1.30;;
70148;SDS011;57514;52.164;5.282;2022-11-15T13:04:54;6.72;;;1.98;;
70148;SDS011;57514;52.164;5.282;2022-11-15T13:10:27;4.32;;;1.42;;
70148;SDS011;57514;52.164;5.282;2022-11-15T13:15:31;3.65;;;1.48;;
70148;SDS011;57514;52.164;5.282;2022-11-15T13:21:02;5.00;;;1.48;;
70148;SDS011;57514;52.164;5.282;2022-11-15T13:23:53;6.63;;;2.40;;
70148;SDS011;57514;52.164;5.282;2022-11-15T13:26:20;4.28;;;1.85;;
70148;SDS011;57514;52.164;5.282;2022-11-15T13:28:48;5.20;;;1.88;;
70148;SDS011;57514;52.164;5.282;2022-11-15T13:33:55;3.88;;;1.23;;
70148;SDS011;57514;52.164;5.282;2022-11-15T13:36:30;4.72;;;1.40;;
70148;SDS011;57514;52.164;5.282;2022-11-15T13:39:03;5.60;;;1.48;;
70148;SDS011;57514;52.164;5.282;2022-11-15T13:41:32;8.77;;;2.30;;
70148;SDS011;57514;52.164;5.282;2022-11-15T13:44:01;5.90;;;1.90;;
70148;SDS011;57514;52.164;5.282;2022-11-15T13:46:29;5.43;;;2.20;;
70148;SDS011;57514;52.164;5.282;2022-11-15T13:48:58;7.38;;;2.70;;
70148;SDS011;57514;52.164;5.282;2022-11-15T13:53:56;10.43;;;1.90;;
70148;SDS011;57514;52.164;5.282;2022-11-15T13:56:25;7.00;;;2.15;;
70148;SDS011;57514;52.164;5.282;2022-11-15T13:58:54;6.38;;;1.92;;
70148;SDS011;57514;52.164;5.282;2022-11-15T14:01:21;4.72;;;2.25;;
70148;SDS011;57514;52.164;5.282;2022-11-15T14:03:50;7.88;;;2.17;;
70148;SDS011;57514;52.164;5.282;2022-11-15T14:06:21;7.68;;;2.17;;
70148;SDS011;57514;52.164;5.282;2022-11-15T14:11:35;5.88;;;2.30;;
70148;SDS011;57514;52.164;5.282;2022-11-15T14:16:42;7.63;;;2.08;;
70148;SDS011;57514;52.164;5.282;2022-11-15T14:24:32;10.07;;;2.83;;
70148;SDS011;57514;52.164;5.282;2022-11-15T14:29:45;6.40;;;2.53;;
70148;SDS011;57514;52.164;5.282;2022-11-15T14:32:16;9.30;;;2.60;;
70148;SDS011;57514;52.164;5.282;2022-11-15T14:34:43;5.90;;;2.13;;
70148;SDS011;57514;52.164;5.282;2022-11-15T14:37:21;7.32;;;2.30;;
70148;SDS011;57514;52.164;5.282;2022-11-15T14:39:49;8.75;;;2.17;;
70148;SDS011;57514;52.164;5.282;2022-11-15T14:42:16;7.55;;;2.58;;
70148;SDS011;57514;52.164;5.282;2022-11-15T14:44:44;5.20;;;1.98;;
70148;SDS011;57514;52.164;5.282;2022-11-15T14:47:11;7.43;;;2.22;;
70148;SDS011;57514;52.164;5.282;2022-11-15T14:49:38;7.38;;;3.08;;
70148;SDS011;57514;52.164;5.282;2022-11-15T14:52:39;8.40;;;1.95;;
70148;SDS011;57514;52.164;5.282;2022-11-15T14:55:02;5.57;;;2.17;;
70148;SDS011;57514;52.164;5.282;2022-11-15T14:57:29;4.53;;;2.03;;
70148;SDS011;57514;52.164;5.282;2022-11-15T14:59:57;7.32;;;2.30;;
70148;SDS011;57514;52.164;5.282;2022-11-15T15:02:37;7.05;;;2.25;;
70148;SDS011;57514;52.164;5.282;2022-11-15T15:05:24;6.78;;;2.30;;
70148;SDS011;57514;52.164;5.282;2022-11-15T15:07:51;6.40;;;1.58;;
70148;SDS011;57514;52.164;5.282;2022-11-15T15:10:22;8.82;;;2.05;;
70148;SDS011;57514;52.164;5.282;2022-11-15T15:13:05;3.78;;;1.92;;
70148;SDS011;57514;52.164;5.282;2022-11-15T15:15:33;9.32;;;2.30;;
70148;SDS011;57514;52.164;5.282;2022-11-15T15:18:01;8.10;;;2.67;;
70148;SDS011;57514;52.164;5.282;2022-11-15T15:20:28;5.03;;;2.00;;
70148;SDS011;57514;52.164;5.282;2022-11-15T15:22:56;5.03;;;2.13;;
70148;SDS011;57514;52.164;5.282;2022-11-15T15:25:28;3.78;;;1.88;;
70148;SDS011;57514;52.164;5.282;2022-11-15T15:27:55;6.75;;;2.22;;
70148;SDS011;57514;52.164;5.282;2022-11-15T15:30:23;5.82;;;1.73;;
70148;SDS011;57514;52.164;5.282;2022-11-15T15:32:50;4.07;;;1.83;;
70148;SDS011;57514;52.164;5.282;2022-11-15T15:35:18;6.70;;;2.08;;
70148;SDS011;57514;52.164;5.282;2022-11-15T15:37:46;7.78;;;1.80;;
70148;SDS011;57514;52.164;5.282;2022-11-15T15:40:14;6.60;;;1.95;;
70148;SDS011;57514;52.164;5.282;2022-11-15T15:42:42;5.40;;;1.85;;
70148;SDS011;57514;52.164;5.282;2022-11-15T15:45:10;5.95;;;2.20;;
70148;SDS011;57514;52.164;5.282;2022-11-15T15:47:37;5.88;;;1.98;;
70148;SDS011;57514;52.164;5.282;2022-11-15T15:52:47;7.13;;;1.95;;
70148;SDS011;57514;52.164;5.282;2022-11-15T15:55:15;4.75;;;1.83;;
70148;SDS011;57514;52.164;5.282;2022-11-15T15:57:42;5.60;;;1.90;;
70148;SDS011;57514;52.164;5.282;2022-11-15T16:00:10;4.22;;;1.55;;
70148;SDS011;57514;52.164;5.282;2022-11-15T16:02:37;3.20;;;1.83;;
70148;SDS011;57514;52.164;5.282;2022-11-15T16:05:06;7.22;;;2.30;;
70148;SDS011;57514;52.164;5.282;2022-11-15T16:07:34;3.35;;;1.33;;
70148;SDS011;57514;52.164;5.282;2022-11-15T16:10:04;6.13;;;1.83;;
70148;SDS011;57514;52.164;5.282;2022-11-15T16:12:41;7.40;;;2.22;;
70148;SDS011;57514;52.164;5.282;2022-11-15T16:15:08;4.43;;;1.63;;
70148;SDS011;57514;52.164;5.282;2022-11-15T16:17:37;19.80;;;8.32;;
70148;SDS011;57514;52.164;5.282;2022-11-15T16:20:05;13.32;;;5.90;;
70148;SDS011;57514;52.164;5.282;2022-11-15T16:22:32;8.07;;;2.53;;
70148;SDS011;57514;52.164;5.282;2022-11-15T16:24:59;18.95;;;7.47;;
70148;SDS011;57514;52.164;5.282;2022-11-15T16:27:26;14.18;;;5.05;;
70148;SDS011;57514;52.164;5.282;2022-11-15T16:29:53;31.23;;;10.73;;
70148;SDS011;57514;52.164;5.282;2022-11-15T16:32:20;18.83;;;7.97;;
70148;SDS011;57514;52.164;5.282;2022-11-15T16:34:49;11.32;;;3.00;;
70148;SDS011;57514;52.164;5.282;2022-11-15T16:37:22;5.05;;;1.40;;
70148;SDS011;57514;52.164;5.282;2022-11-15T16:39:52;5.30;;;1.90;;
70148;SDS011;57514;52.164;5.282;2022-11-15T16:42:26;6.13;;;2.20;;
70148;SDS011;57514;52.164;5.282;2022-11-15T16:44:55;8.30;;;2.20;;
70148;SDS011;57514;52.164;5.282;2022-11-15T16:47:22;3.45;;;1.65;;
70148;SDS011;57514;52.164;5.282;2022-11-15T16:49:49;3.83;;;1.73;;
70148;SDS011;57514;52.164;5.282;2022-11-15T16:52:16;9.93;;;2.30;;
70148;SDS011;57514;52.164;5.282;2022-11-15T16:57:13;10.75;;;2.22;;
70148;SDS011;57514;52.164;5.282;2022-11-15T16:59:41;7.20;;;2.25;;
70148;SDS011;57514;52.164;5.282;2022-11-15T17:02:11;5.97;;;1.85;;
70148;SDS011;57514;52.164;5.282;2022-11-15T17:04:38;3.97;;;1.77;;
70148;SDS011;57514;52.164;5.282;2022-11-15T17:07:05;3.97;;;1.50;;
70148;SDS011;57514;52.164;5.282;2022-11-15T17:09:33;7.22;;;2.50;;
70148;SDS011;57514;52.164;5.282;2022-11-15T17:12:00;3.47;;;1.70;;
70148;SDS011;57514;52.164;5.282;2022-11-15T17:14:27;4.22;;;1.90;;
70148;SDS011;57514;52.164;5.282;2022-11-15T17:16:55;3.55;;;1.77;;
70148;SDS011;57514;52.164;5.282;2022-11-15T17:19:22;5.15;;;1.67;;
70148;SDS011;57514;52.164;5.282;2022-11-15T17:21:49;5.45;;;2.47;;
70148;SDS011;57514;52.164;5.282;2022-11-15T17:24:16;7.47;;;2.58;;
70148;SDS011;57514;52.164;5.282;2022-11-15T17:26:45;2.20;;;1.67;;
70148;SDS011;57514;52.164;5.282;2022-11-15T17:29:12;7.25;;;1.83;;
70148;SDS011;57514;52.164;5.282;2022-11-15T17:31:40;5.10;;;2.15;;
70148;SDS011;57514;52.164;5.282;2022-11-15T17:34:07;5.20;;;1.70;;
70148;SDS011;57514;52.164;5.282;2022-11-15T17:36:34;4.85;;;2.13;;
70148;SDS011;57514;52.164;5.282;2022-11-15T17:39:02;4.63;;;2.20;;
70148;SDS011;57514;52.164;5.282;2022-11-15T17:41:30;5.18;;;2.20;;
70148;SDS011;57514;52.164;5.282;2022-11-15T17:43:57;6.15;;;2.42;;
70148;SDS011;57514;52.164;5.282;2022-11-15T17:46:28;7.22;;;2.53;;
70148;SDS011;57514;52.164;5.282;2022-11-15T17:48:59;5.32;;;2.08;;
70148;SDS011;57514;52.164;5.282;2022-11-15T17:51:26;6.22;;;2.70;;
70148;SDS011;57514;52.164;5.282;2022-11-15T17:53:54;6.88;;;2.60;;
70148;SDS011;57514;52.164;5.282;2022-11-15T17:56:22;6.78;;;2.35;;
70148;SDS011;57514;52.164;5.282;2022-11-15T17:58:50;7.10;;;2.80;;
70148;SDS011;57514;52.164;5.282;2022-11-15T18:01:19;7.20;;;2.80;;
70148;SDS011;57514;52.164;5.282;2022-11-15T18:03:46;8.68;;;2.88;;
70148;SDS011;57514;52.164;5.282;2022-11-15T18:06:14;10.35;;;2.97;;
70148;SDS011;57514;52.164;5.282;2022-11-15T18:08:42;6.97;;;2.97;;